createdAt,value
2022-11-19T00:02:02.528Z,100227.41
2022-11-19T00:04:32.494Z,100226.09
2022-11-19T00:06:59.379Z,100227.13
2022-11-19T00:09:26.325Z,100233.59
2022-11-19T00:12:17.386Z,100236.38
2022-11-19T00:14:44.350Z,100234.75
2022-11-19T00:17:11.017Z,100228.63
2022-11-19T00:19:38.039Z,100229.78
2022-11-19T00:22:05.117Z,100229.31
2022-11-19T00:24:33.338Z,100230.13
2022-11-19T00:27:00.166Z,100224.16
2022-11-19T00:29:26.907Z,100232.41
2022-11-19T00:31:53.747Z,100225.19
2022-11-19T00:34:20.953Z,100234.47
2022-11-19T00:36:48.538Z,100226.84
2022-11-19T00:39:15.529Z,100236.78
2022-11-19T00:41:42.288Z,100237.09
2022-11-19T00:44:08.836Z,100233.44
2022-11-19T00:46:36.146Z,100238.25
2022-11-19T00:49:03.155Z,100237.78
2022-11-19T00:51:40.865Z,100248.84
2022-11-19T00:54:07.796Z,100256.00
2022-11-19T00:56:35.016Z,100260.78
2022-11-19T00:59:17.043Z,100259.31
2022-11-19T01:01:44.454Z,100258.50
2022-11-19T01:04:11.604Z,100263.97
2022-11-19T01:06:38.923Z,100273.22
2022-11-19T01:09:06.064Z,100269.09
2022-11-19T01:11:37.932Z,100275.19
2022-11-19T01:14:06.571Z,100271.22
2022-11-19T01:17:01.796Z,100281.81
2022-11-19T01:19:28.336Z,100289.44
2022-11-19T01:21:54.965Z,100286.13
2022-11-19T01:24:22.119Z,100283.81
2022-11-19T01:26:49.004Z,100291.09
2022-11-19T01:29:16.095Z,100287.78
2022-11-19T01:31:43.075Z,100287.13
2022-11-19T01:34:12.748Z,100279.69
2022-11-19T01:36:39.504Z,100288.09
2022-11-19T01:39:06.185Z,100279.19
2022-11-19T01:41:33.548Z,100281.50
2022-11-19T01:44:04.950Z,100280.81
2022-11-19T01:46:37.814Z,100281.81
2022-11-19T01:49:19.147Z,100294.91
2022-11-19T01:51:55.672Z,100289.44
2022-11-19T01:54:35.530Z,100282.47
2022-11-19T01:57:05.685Z,100280.31
2022-11-19T01:59:32.852Z,100276.16
2022-11-19T02:02:00.213Z,100287.09
2022-11-19T02:04:28.153Z,100287.09
2022-11-19T02:06:55.372Z,100291.72
2022-11-19T02:09:22.985Z,100296.34
2022-11-19T02:12:13.339Z,100295.53
2022-11-19T02:15:05.554Z,100303.63
2022-11-19T02:18:24.726Z,100308.94
2022-11-19T02:20:54.602Z,100308.88
2022-11-19T02:23:46.958Z,100312.22
2022-11-19T02:26:38.647Z,100307.09
2022-11-19T02:29:44.378Z,100314.50
2022-11-19T02:32:18.430Z,100317.78
2022-11-19T02:35:02.225Z,100315.16
2022-11-19T02:37:33.292Z,100308.19
2022-11-19T02:40:13.435Z,100320.25
2022-11-19T02:43:31.153Z,100334.97
2022-11-19T02:46:05.455Z,100326.03
2022-11-19T02:48:38.726Z,100339.41
2022-11-19T02:51:08.582Z,100345.16
2022-11-19T02:53:36.197Z,100356.88
2022-11-19T02:56:20.474Z,100347.66
2022-11-19T02:59:14.592Z,100346.19
2022-11-19T03:02:05.066Z,100346.66
2022-11-19T03:04:33.477Z,100340.03
2022-11-19T03:07:05.293Z,100347.94
2022-11-19T03:10:03.846Z,100351.94
2022-11-19T03:12:30.366Z,100359.59
2022-11-19T03:15:24.608Z,100358.16
2022-11-19T03:18:14.913Z,100348.41
2022-11-19T03:21:01.173Z,100351.22
2022-11-19T03:23:34.947Z,100351.03
2022-11-19T03:26:07.154Z,100354.97
2022-11-19T03:28:37.606Z,100351.97
2022-11-19T03:31:07.467Z,100363.56
2022-11-19T03:33:44.610Z,100357.59
2022-11-19T03:36:18.966Z,100363.19
2022-11-19T03:38:55.583Z,100366.81
2022-11-19T03:41:39.675Z,100360.19
2022-11-19T03:44:30.858Z,100373.56
2022-11-19T03:47:25.088Z,100374.91
2022-11-19T03:50:00.247Z,100376.38
2022-11-19T03:52:27.120Z,100371.84
2022-11-19T03:54:55.517Z,100373.44
2022-11-19T03:57:34.983Z,100379.13
2022-11-19T04:00:02.914Z,100385.50
2022-11-19T04:02:29.772Z,100390.13
2022-11-19T04:04:57.179Z,100386.81
2022-11-19T04:07:27.407Z,100389.28
2022-11-19T04:12:46.644Z,100386.28
2022-11-19T04:18:06.688Z,100396.03
2022-11-19T04:20:33.673Z,100389.41
2022-11-19T04:23:00.784Z,100387.72
2022-11-19T04:25:28.535Z,100395.00
2022-11-19T04:27:55.463Z,100391.66
2022-11-19T04:30:24.340Z,100392.00
2022-11-19T04:33:05.424Z,100399.22
2022-11-19T04:35:32.508Z,100400.19
2022-11-19T04:38:00.069Z,100394.25
2022-11-19T04:40:27.371Z,100389.28
2022-11-19T04:42:56.857Z,100390.78
2022-11-19T04:45:23.545Z,100388.59
2022-11-19T04:47:50.656Z,100396.34
2022-11-19T04:50:18.228Z,100394.56
2022-11-19T04:52:47.324Z,100400.44
2022-11-19T04:55:15.173Z,100409.34
2022-11-19T05:00:23.345Z,100406.34
2022-11-19T05:02:50.033Z,100411.75
2022-11-19T05:05:16.773Z,100417.19
2022-11-19T05:07:43.536Z,100420.81
2022-11-19T05:10:10.804Z,100415.38
2022-11-19T05:12:37.857Z,100406.66
2022-11-19T05:15:05.790Z,100415.84
2022-11-19T05:17:32.420Z,100408.91
2022-11-19T05:20:01.029Z,100409.72
2022-11-19T05:22:28.392Z,100408.91
2022-11-19T05:24:55.909Z,100408.25
2022-11-19T05:31:21.289Z,100396.09
2022-11-19T06:52:37.212Z,100475.56
2022-11-19T08:06:51.293Z,100503.47
2022-11-19T08:09:18.242Z,100502.25
2022-11-19T08:11:45.124Z,100515.41
2022-11-19T08:14:14.965Z,100523.09
2022-11-19T08:17:00.103Z,100519.19
2022-11-19T08:19:27.136Z,100514.38
2022-11-19T08:21:53.649Z,100503.97
2022-11-19T08:24:21.286Z,100512.91
2022-11-19T08:26:48.877Z,100500.91
2022-11-19T08:29:17.809Z,100502.16
2022-11-19T08:31:47.249Z,100489.16
2022-11-19T08:34:14.916Z,100490.56
2022-11-19T08:39:23.377Z,100495.31
2022-11-19T08:42:08.654Z,100494.44
2022-11-19T08:44:35.477Z,100501.53
2022-11-19T08:47:03.115Z,100493.69
2022-11-19T08:49:33.761Z,100499.28
2022-11-19T08:52:00.503Z,100502.63
2022-11-19T08:54:47.888Z,100489.38
2022-11-19T08:57:14.596Z,100488.25
2022-11-19T11:30:19.569Z,100436.56
2022-11-19T11:32:49.133Z,100436.09
2022-11-19T11:35:39.954Z,100433.88
2022-11-19T11:38:07.466Z,100428.06
2022-11-19T11:47:18.296Z,100422.69
2022-11-19T12:00:46.182Z,100399.50
2022-11-19T12:06:15.684Z,100398.56
2022-11-19T12:09:01.196Z,100408.88
2022-11-19T12:15:13.266Z,100409.06
2022-11-19T12:18:10.314Z,100404.88
2022-11-19T12:20:57.979Z,100393.00
2022-11-19T12:23:57.843Z,100399.94
2022-11-19T12:26:33.723Z,100392.94
2022-11-19T12:29:27.111Z,100394.59
2022-11-19T12:32:19.939Z,100396.03
2022-11-19T12:35:17.230Z,100389.91
2022-11-19T12:38:20.194Z,100402.59
2022-11-19T12:41:20.676Z,100392.41
2022-11-19T12:44:31.876Z,100390.91
2022-11-19T12:47:45.583Z,100390.91
2022-11-19T12:50:55.623Z,100381.84
2022-11-19T12:58:07.647Z,100375.09
2022-11-19T13:00:41.125Z,100371.34
2022-11-19T13:03:35.099Z,100365.84
2022-11-19T13:06:16.740Z,100372.75
2022-11-19T13:08:48.381Z,100365.59
2022-11-19T13:11:21.759Z,100370.03
2022-11-19T13:13:58.839Z,100365.31
2022-11-19T13:16:29.763Z,100374.03
2022-11-19T13:19:20.543Z,100362.75
2022-11-19T13:22:12.323Z,100365.69
2022-11-19T13:25:14.898Z,100370.03
2022-11-19T13:27:43.587Z,100368.53
2022-11-19T13:30:19.006Z,100367.34
2022-11-19T13:32:59.255Z,100368.16
2022-11-19T13:35:29.651Z,100370.38
2022-11-19T13:38:22.504Z,100370.84
2022-11-19T13:41:01.380Z,100369.31
2022-11-19T13:43:49.837Z,100361.91
2022-11-19T13:46:38.996Z,100374.44
2022-11-19T13:49:16.384Z,100368.78
2022-11-19T13:51:49.192Z,100365.16
2022-11-19T13:54:31.313Z,100369.72
2022-11-19T13:57:03.020Z,100365.72
2022-11-19T13:59:39.633Z,100362.19
2022-11-19T14:02:45.481Z,100363.97
2022-11-19T21:14:17.801Z,100345.72
2022-11-19T21:24:46.714Z,100344.69
2022-11-19T21:27:13.314Z,100341.38
2022-11-19T21:29:40.008Z,100346.00
2022-11-19T21:32:06.767Z,100346.00
2022-11-19T21:34:34.014Z,100344.09
2022-11-19T21:37:06.582Z,100341.53
2022-11-19T21:39:33.197Z,100342.84
2022-11-19T21:41:59.794Z,100338.53
2022-11-19T21:44:26.492Z,100338.69
2022-11-19T21:46:53.139Z,100331.91
2022-11-19T21:49:20.169Z,100331.09
2022-11-19T21:51:47.367Z,100327.75
2022-11-19T21:54:14.050Z,100331.38
2022-11-19T21:56:40.671Z,100329.75
2022-11-19T21:59:07.571Z,100326.44
2022-11-19T22:01:34.347Z,100323.94
2022-11-19T22:04:01.591Z,100328.84
2022-11-19T22:06:28.486Z,100324.59
2022-11-19T22:08:55.598Z,100321.47
2022-11-19T22:11:32.145Z,100324.28
2022-11-19T22:14:07.994Z,100331.72
2022-11-19T22:16:39.779Z,100327.56
2022-11-19T22:19:07.125Z,100331.81
2022-11-19T22:21:36.415Z,100332.47
2022-11-19T22:24:04.316Z,100334.59
2022-11-19T22:26:31.274Z,100328.81
2022-11-19T22:28:57.999Z,100325.50
2022-11-19T22:31:26.683Z,100324.47
2022-11-19T22:33:54.013Z,100319.41
2022-11-19T22:36:22.113Z,100324.16
2022-11-19T22:38:48.972Z,100318.34
2022-11-19T22:41:18.272Z,100313.06
2022-11-19T22:43:46.440Z,100322.28
2022-11-19T22:46:14.595Z,100325.09
2022-11-19T22:48:41.590Z,100321.78
2022-11-19T22:51:13.648Z,100316.50
2022-11-19T22:53:47.477Z,100312.88
2022-11-19T22:56:17.728Z,100319.28
2022-11-19T22:58:44.767Z,100320.56
2022-11-19T23:01:43.544Z,100329.22
2022-11-19T23:04:14.211Z,100326.53
2022-11-19T23:06:41.025Z,100332.44
2022-11-19T23:09:07.723Z,100320.00
2022-11-19T23:11:53.407Z,100323.50
2022-11-19T23:14:20.038Z,100325.97
2022-11-19T23:16:46.678Z,100325.00
2022-11-19T23:19:13.559Z,100328.63
2022-11-19T23:21:40.339Z,100324.16
2022-11-19T23:24:07.128Z,100324.16
2022-11-19T23:26:34.197Z,100315.09
2022-11-19T23:29:01.002Z,100316.06
2022-11-19T23:31:31.052Z,100316.06
2022-11-19T23:33:59.237Z,100306.19
2022-11-19T23:36:30.426Z,100301.06
2022-11-19T23:38:57.783Z,100300.22
2022-11-19T23:41:24.539Z,100301.06
2022-11-19T23:43:52.417Z,100290.50
2022-11-19T23:46:20.213Z,100290.69
2022-11-19T23:48:48.067Z,100294.94
2022-11-19T23:51:15.746Z,100279.28
2022-11-19T23:53:42.874Z,100282.75
2022-11-19T23:56:10.229Z,100276.63
2022-11-19T23:58:36.868Z,100273.00
